KPMV

Plattsmouth Municipal Airport

Plattsmouth, Nebraska, USA
METAR KPMV 210515Z AUTO 33005KT 10SM CLR 19/18 A3001 RMK AO2 T01870175
Observed Flight Rules
Aug-21 @ 05:15 UTC (9 hours ago) Visual Flight Rules
Wind Visibility Clouds
330° at 5 knots 10 miles
  • Clear skies
Temperatures Readings
Current 19°C / 66°F
Dewpoint 18°C / 64°F
Humidity 94%
Altimeter 30.01" Hg
Pressure 1016 hPa
Elevation 367
METAR KPMV 210515Z AUTO 33005KT 10SM CLR 19/18 A3001 RMK AO2 T01870175
Observed Flight Rules
Aug-21 @ 05:15 UTC
(9 hours ago)
VFR
Wind Visibility
330° at 5 knots 10 miles
Clouds
  • Clear skies
Temperature Dewpoint
19°C / 66°F 18°C / 64°F
Humidity Altimeter Pressure
94% 30.01" Hg 1016 hPa